createdAt,value
2022-11-20T00:01:59.331Z,15.02
2022-11-20T00:04:26.931Z,15.02
2022-11-20T00:06:54.100Z,15.17
2022-11-20T00:09:22.177Z,15.11
2022-11-20T00:11:49.458Z,15.10
2022-11-20T00:14:16.426Z,15.06
2022-11-20T00:16:43.471Z,14.99
2022-11-20T00:19:11.044Z,14.95
2022-11-20T00:21:38.094Z,14.97
2022-11-20T00:24:05.282Z,14.92
2022-11-20T00:26:33.464Z,14.86
2022-11-20T00:29:02.388Z,14.92
2022-11-20T00:31:29.875Z,15.02
2022-11-20T00:33:57.759Z,14.99
2022-11-20T00:36:25.960Z,14.96
2022-11-20T00:38:58.161Z,14.93
2022-11-20T00:41:26.971Z,14.92
2022-11-20T00:43:55.707Z,14.94
2022-11-20T00:46:25.223Z,14.92
2022-11-20T00:48:52.440Z,15.02
2022-11-20T00:51:23.506Z,14.99
2022-11-20T00:53:51.624Z,15.06
2022-11-20T00:56:20.271Z,15.05
2022-11-20T00:58:49.425Z,14.94
2022-11-20T01:01:22.623Z,14.94
2022-11-20T01:03:51.487Z,14.90
2022-11-20T01:06:21.208Z,14.90
2022-11-20T01:08:50.033Z,14.88
2022-11-20T01:11:22.712Z,14.84
2022-11-20T01:13:51.895Z,14.90
2022-11-20T01:16:28.868Z,14.94
2022-11-20T01:18:58.706Z,15.02
2022-11-20T01:21:31.416Z,15.07
2022-11-20T01:23:58.952Z,15.09
2022-11-20T01:26:29.439Z,15.11
2022-11-20T01:28:57.714Z,15.24
2022-11-20T01:31:33.279Z,15.31
2022-11-20T01:34:06.070Z,15.39
2022-11-20T01:36:35.231Z,15.41
2022-11-20T01:39:07.690Z,15.40
2022-11-20T01:41:54.058Z,15.34
2022-11-20T01:44:23.841Z,15.29
2022-11-20T01:47:02.100Z,15.24
2022-11-20T01:49:42.688Z,15.17
2022-11-20T01:52:18.678Z,15.07
2022-11-20T01:55:01.256Z,15.04
2022-11-20T01:57:30.481Z,14.89
2022-11-20T02:00:18.813Z,15.04
2022-11-20T02:02:52.532Z,15.08
2022-11-20T02:05:23.806Z,15.19
2022-11-20T02:07:52.045Z,15.22
2022-11-20T02:10:19.864Z,15.19
2022-11-20T02:13:05.239Z,15.32
2022-11-20T02:15:34.300Z,15.41
2022-11-20T02:18:01.609Z,15.76
2022-11-20T02:20:28.998Z,15.90
2022-11-20T02:23:06.491Z,15.95
2022-11-20T02:25:37.136Z,16.16
2022-11-20T02:28:05.220Z,16.11
2022-11-20T02:30:32.678Z,16.20
2022-11-20T02:33:00.533Z,16.26
2022-11-20T02:35:27.291Z,16.38
2022-11-20T02:37:55.994Z,16.37
2022-11-20T02:40:23.141Z,16.40
2022-11-20T02:42:53.197Z,16.40
2022-11-20T02:45:20.046Z,16.28
2022-11-20T02:47:46.902Z,16.24
2022-11-20T02:50:14.016Z,16.35
2022-11-20T02:52:40.846Z,16.34
2022-11-20T02:55:08.016Z,16.32
2022-11-20T02:57:35.080Z,16.26
2022-11-20T03:00:02.165Z,16.23
2022-11-20T03:02:32.319Z,16.16
2022-11-20T03:04:59.431Z,16.18
2022-11-20T03:07:26.345Z,16.00
2022-11-20T03:09:53.309Z,15.88
2022-11-20T03:12:20.104Z,15.73
2022-11-20T03:14:52.596Z,15.66
2022-11-20T03:17:20.043Z,15.55
2022-11-20T03:19:47.008Z,15.52
2022-11-20T03:22:13.986Z,15.44
2022-11-20T03:24:40.801Z,15.36
2022-11-20T03:27:07.807Z,15.38
2022-11-20T03:29:36.172Z,15.35
2022-11-20T03:32:02.928Z,15.39
2022-11-20T03:34:29.722Z,15.27
2022-11-20T03:36:56.830Z,15.24
2022-11-20T03:39:24.173Z,15.36
2022-11-20T03:41:58.901Z,15.37
2022-11-20T03:44:35.606Z,15.42
2022-11-20T03:47:02.668Z,15.36
2022-11-20T03:49:30.028Z,15.38
2022-11-20T03:51:57.337Z,15.26
2022-11-20T03:54:24.727Z,15.17
2022-11-20T03:56:52.051Z,15.06
2022-11-20T03:59:19.481Z,14.99
2022-11-20T04:01:49.439Z,14.89
2022-11-20T04:04:17.015Z,14.91
2022-11-20T04:06:44.560Z,14.83
2022-11-20T04:09:11.757Z,14.73
2022-11-20T04:11:44.215Z,14.59
2022-11-20T04:14:15.699Z,14.53
2022-11-20T04:16:43.434Z,14.41
2022-11-20T04:19:16.929Z,14.42
2022-11-20T04:21:45.416Z,14.33
2022-11-20T04:24:12.763Z,14.48
2022-11-20T04:26:41.227Z,14.63
2022-11-20T04:29:08.699Z,14.94
2022-11-20T04:31:36.457Z,15.24
2022-11-20T04:34:05.513Z,15.38
2022-11-20T04:36:32.999Z,15.53
2022-11-20T04:39:01.884Z,15.78
2022-11-20T04:41:33.491Z,16.01
2022-11-20T04:44:04.460Z,16.03
2022-11-20T04:46:35.510Z,16.18
2022-11-20T04:49:02.747Z,16.19
2022-11-20T04:51:29.557Z,16.20
2022-11-20T04:53:57.347Z,16.23
2022-11-20T04:56:24.156Z,16.23
2022-11-20T04:58:51.056Z,16.26
2022-11-20T05:01:24.518Z,16.33
2022-11-20T05:03:51.715Z,16.28
2022-11-20T05:06:20.203Z,16.40
2022-11-20T05:08:47.005Z,16.42
2022-11-20T05:11:15.372Z,16.47
2022-11-20T05:13:42.473Z,16.53
2022-11-20T05:16:13.641Z,16.45
2022-11-20T05:18:40.682Z,16.49
2022-11-20T05:21:08.039Z,16.48
2022-11-20T05:23:34.856Z,16.61
2022-11-20T05:26:02.120Z,16.63
2022-11-20T05:28:30.054Z,16.57
2022-11-20T05:30:56.677Z,16.53
2022-11-20T05:33:23.687Z,16.49
2022-11-20T05:35:50.416Z,16.56
2022-11-20T05:38:17.225Z,16.57
2022-11-20T05:40:43.898Z,16.64
2022-11-20T05:43:11.101Z,16.57
2022-11-20T05:45:38.065Z,16.58
2022-11-20T05:48:05.136Z,16.52
2022-11-20T05:50:31.937Z,16.58
2022-11-20T05:53:02.199Z,16.66
2022-11-20T05:55:28.928Z,16.58
2022-11-20T05:57:56.173Z,16.55
2022-11-20T06:00:23.211Z,16.49
2022-11-20T06:02:50.336Z,16.54
2022-11-20T06:05:17.444Z,16.52
2022-11-20T06:07:44.602Z,16.57
2022-11-20T06:10:12.090Z,16.72
2022-11-20T06:12:38.752Z,16.76
2022-11-20T06:15:05.954Z,16.85
2022-11-20T06:17:32.665Z,16.84
2022-11-20T06:20:01.758Z,16.84
2022-11-20T06:22:28.798Z,16.93
2022-11-20T06:24:55.518Z,16.94
2022-11-20T06:27:22.229Z,17.00
2022-11-20T06:29:49.077Z,17.08
2022-11-20T06:32:15.910Z,17.17
2022-11-20T06:34:42.604Z,17.25
2022-11-20T06:37:09.288Z,17.25
2022-11-20T06:39:36.234Z,17.42
2022-11-20T06:42:03.014Z,17.50
2022-11-20T06:44:29.739Z,17.48
2022-11-20T06:46:56.500Z,17.50
2022-11-20T06:49:23.635Z,17.59
2022-11-20T06:51:50.612Z,17.64
2022-11-20T06:54:17.404Z,17.78
2022-11-20T06:56:47.731Z,17.81
2022-11-20T06:59:14.354Z,17.73
2022-11-20T07:01:41.322Z,17.79
2022-11-20T07:04:08.201Z,17.93
2022-11-20T07:06:34.849Z,18.02
2022-11-20T07:09:01.606Z,18.05
2022-11-20T07:11:28.389Z,18.11
2022-11-20T07:13:55.181Z,18.08
2022-11-20T07:16:21.840Z,18.22
2022-11-20T07:18:50.895Z,18.30
2022-11-20T07:21:17.919Z,18.30
2022-11-20T07:23:44.654Z,18.16
2022-11-20T07:26:11.896Z,18.12
2022-11-20T07:28:38.739Z,18.07
2022-11-20T07:31:06.367Z,18.17
2022-11-20T07:33:33.730Z,18.19
2022-11-20T07:36:01.307Z,18.19
2022-11-20T07:38:28.427Z,18.18
2022-11-20T07:40:56.749Z,18.19
2022-11-20T07:43:23.380Z,18.31
2022-11-20T07:45:50.197Z,18.35
2022-11-20T07:48:17.020Z,18.44
2022-11-20T07:50:43.705Z,18.50
2022-11-20T07:53:10.578Z,18.54
2022-11-20T07:55:37.334Z,18.58
2022-11-20T07:58:04.000Z,18.53
2022-11-20T08:00:30.843Z,18.35
2022-11-20T08:02:57.795Z,17.91
2022-11-20T08:05:24.535Z,17.69
2022-11-20T08:07:51.221Z,17.47
2022-11-20T08:10:20.195Z,17.26
2022-11-20T08:13:06.287Z,17.06
2022-11-20T08:15:33.032Z,16.77
2022-11-20T08:18:29.496Z,16.43
2022-11-20T08:20:50.769Z,16.17
2022-11-20T08:23:17.509Z,16.04
2022-11-20T08:25:44.168Z,15.88
2022-11-20T08:28:20.283Z,15.73
2022-11-20T08:30:47.899Z,15.61
2022-11-20T08:33:14.784Z,15.55
2022-11-20T08:35:42.838Z,15.54
2022-11-20T08:38:09.863Z,15.45
2022-11-20T08:40:36.552Z,15.34
2022-11-20T08:43:03.277Z,15.34
2022-11-20T08:45:33.985Z,15.23
2022-11-20T08:48:02.117Z,15.18
2022-11-20T08:50:28.794Z,15.15
2022-11-20T08:52:55.398Z,15.13
2022-11-20T08:55:22.066Z,15.07
2022-11-20T08:57:51.003Z,15.05
2022-11-20T09:00:18.114Z,14.99
2022-11-20T09:02:44.781Z,14.98
2022-11-20T09:05:11.542Z,14.98
2022-11-20T09:07:38.347Z,14.91
2022-11-20T09:12:53.109Z,14.96
2022-11-20T09:15:20.470Z,15.03
2022-11-20T09:17:56.962Z,15.02
2022-11-20T09:20:23.657Z,15.03
2022-11-20T09:22:50.497Z,14.98
2022-11-20T09:25:17.730Z,14.99
2022-11-20T09:27:47.324Z,15.05
2022-11-20T09:30:17.030Z,15.14
2022-11-20T09:32:44.303Z,15.10
2022-11-20T09:35:11.885Z,15.16
2022-11-20T09:37:38.807Z,15.17
2022-11-20T09:40:05.706Z,15.17
2022-11-20T09:42:35.374Z,15.14
2022-11-20T09:45:20.854Z,15.18
2022-11-20T09:47:50.599Z,15.28
2022-11-20T09:50:32.780Z,15.35
2022-11-20T09:53:26.043Z,15.48
2022-11-20T09:55:52.723Z,15.52
2022-11-20T09:58:26.910Z,15.70
2022-11-20T10:00:57.791Z,15.83
2022-11-20T10:03:53.961Z,15.96
2022-11-20T10:06:25.064Z,16.22
2022-11-20T10:09:03.028Z,16.48
2022-11-20T10:11:47.023Z,16.54
2022-11-20T10:14:32.464Z,16.67
2022-11-20T10:17:05.422Z,16.76
2022-11-20T10:19:41.518Z,16.78
2022-11-20T10:22:27.714Z,16.75
2022-11-20T10:24:57.724Z,16.77
2022-11-20T10:27:43.461Z,16.81
2022-11-20T10:30:12.159Z,16.88
2022-11-20T10:32:43.533Z,17.01
2022-11-20T10:35:25.600Z,17.05
2022-11-20T10:37:56.541Z,17.13
2022-11-20T10:40:29.505Z,17.10
2022-11-20T10:43:14.977Z,17.17
2022-11-20T10:45:47.889Z,17.05
2022-11-20T10:48:17.925Z,17.06
2022-11-20T10:50:56.310Z,17.06
2022-11-20T10:53:25.970Z,16.87
2022-11-20T10:56:06.320Z,16.79
2022-11-20T10:58:44.080Z,16.62
2022-11-20T11:01:15.917Z,16.52
2022-11-20T11:03:44.643Z,16.32
2022-11-20T11:06:25.787Z,16.24
2022-11-20T11:08:54.514Z,16.15
2022-11-20T11:11:21.420Z,16.17
2022-11-20T11:13:48.139Z,16.02
2022-11-20T11:16:22.469Z,15.96
2022-11-20T11:18:49.179Z,15.93
2022-11-20T11:21:22.341Z,15.89
2022-11-20T11:24:13.531Z,15.88
2022-11-20T11:26:52.667Z,15.86
2022-11-20T11:29:19.497Z,15.85
2022-11-20T11:31:46.337Z,15.79
2022-11-20T11:34:14.482Z,15.78
2022-11-20T11:36:41.742Z,15.80
2022-11-20T11:39:12.701Z,15.71
2022-11-20T11:41:39.702Z,15.62
2022-11-20T11:44:36.872Z,15.53
2022-11-20T11:47:04.679Z,15.48
2022-11-20T11:49:31.613Z,15.44
2022-11-20T11:52:18.382Z,15.38
2022-11-20T11:54:45.350Z,15.37
2022-11-20T11:57:24.648Z,15.29
2022-11-20T12:00:09.956Z,15.28
2022-11-20T12:02:45.692Z,15.15
2022-11-20T12:05:25.778Z,15.09
2022-11-20T12:08:14.980Z,15.02
2022-11-20T12:10:45.613Z,14.93
2022-11-20T12:13:12.386Z,14.85
2022-11-20T12:15:43.466Z,14.70
2022-11-20T12:18:16.007Z,14.51
2022-11-20T12:20:45.861Z,14.47
2022-11-20T12:23:32.793Z,14.41
2022-11-20T12:26:03.609Z,14.33
2022-11-20T12:28:38.112Z,14.26
2022-11-20T12:31:14.486Z,14.16
2022-11-20T12:33:44.010Z,14.06
2022-11-20T12:36:10.989Z,14.04
2022-11-20T12:38:58.368Z,14.04
2022-11-20T12:42:02.392Z,14.08
2022-11-20T12:45:06.402Z,14.04
2022-11-20T12:47:33.359Z,13.90
2022-11-20T12:50:18.408Z,13.87
2022-11-20T12:53:03.955Z,13.86
2022-11-20T12:55:56.847Z,13.80
2022-11-20T12:58:39.334Z,13.75
2022-11-20T13:01:06.201Z,13.70
2022-11-20T13:03:43.618Z,13.69
2022-11-20T13:06:15.400Z,13.61
2022-11-20T13:08:44.205Z,13.61
2022-11-20T13:11:16.971Z,13.66
2022-11-20T13:13:49.044Z,13.50
2022-11-20T13:16:21.019Z,13.32
2022-11-20T13:18:47.887Z,13.14
2022-11-20T13:21:15.856Z,13.01
2022-11-20T13:23:42.745Z,12.97
2022-11-20T13:26:23.355Z,12.95
2022-11-20T13:29:01.497Z,12.87
2022-11-20T13:31:36.298Z,12.81
2022-11-20T13:34:04.722Z,12.72
2022-11-20T13:36:33.578Z,12.62
2022-11-20T13:39:00.728Z,12.51
2022-11-20T13:41:36.603Z,12.51
2022-11-20T13:44:09.133Z,12.54
2022-11-20T13:46:47.189Z,12.54
2022-11-20T13:49:24.890Z,12.56
2022-11-20T13:51:53.509Z,12.47
2022-11-20T13:54:38.659Z,12.41
2022-11-20T13:57:23.894Z,12.35
2022-11-20T14:00:06.481Z,12.33
2022-11-20T14:02:33.649Z,12.31
2022-11-20T14:05:01.902Z,12.38
2022-11-20T14:07:33.677Z,12.33
2022-11-20T14:10:00.801Z,12.39
2022-11-20T14:12:32.164Z,12.39
2022-11-20T14:14:59.716Z,12.43
2022-11-20T14:17:29.677Z,12.42
2022-11-20T14:19:59.800Z,12.45
2022-11-20T14:22:27.660Z,12.51
2022-11-20T14:25:13.097Z,12.48
2022-11-20T14:27:43.910Z,12.38
2022-11-20T14:30:17.957Z,12.27
2022-11-20T14:32:45.432Z,12.06
2022-11-20T14:35:16.427Z,11.93
2022-11-20T14:37:43.463Z,11.91
2022-11-20T14:40:30.340Z,11.68
2022-11-20T14:42:58.144Z,11.66
2022-11-20T14:45:26.387Z,11.78
2022-11-20T14:47:57.825Z,11.70
2022-11-20T14:50:26.360Z,11.75
2022-11-20T14:52:56.636Z,11.75
2022-11-20T14:55:30.883Z,11.75
2022-11-20T14:57:59.509Z,11.81
2022-11-20T15:00:26.723Z,11.86
2022-11-20T15:02:54.326Z,11.86
2022-11-20T15:05:22.405Z,11.87
2022-11-20T15:07:51.154Z,11.98
2022-11-20T15:10:18.109Z,11.94
2022-11-20T15:13:01.241Z,11.79
2022-11-20T15:15:37.920Z,11.67
2022-11-20T15:18:05.087Z,11.59
2022-11-20T15:20:33.102Z,11.53
2022-11-20T15:23:00.220Z,11.59
2022-11-20T15:25:27.123Z,11.56
2022-11-20T15:27:57.200Z,11.64
2022-11-20T15:30:24.670Z,11.71
2022-11-20T15:32:51.423Z,11.74
2022-11-20T15:35:18.480Z,11.73
2022-11-20T15:38:06.884Z,11.77
2022-11-20T15:40:35.516Z,11.80
2022-11-20T15:43:12.610Z,11.80
2022-11-20T15:45:42.919Z,11.72
2022-11-20T15:48:15.229Z,11.82
2022-11-20T15:50:54.850Z,11.81
2022-11-20T15:53:22.203Z,11.80
2022-11-20T15:55:49.649Z,11.78
2022-11-20T15:58:18.013Z,11.73
2022-11-20T16:00:45.707Z,11.71
2022-11-20T16:03:13.759Z,11.67
2022-11-20T16:05:41.024Z,11.69
2022-11-20T16:08:11.556Z,11.70
2022-11-20T16:10:39.074Z,11.69
2022-11-20T16:13:25.421Z,11.71
2022-11-20T16:15:54.844Z,11.70
2022-11-20T16:18:22.782Z,11.71
2022-11-20T16:20:51.033Z,11.74
2022-11-20T16:23:18.083Z,11.77
2022-11-20T16:25:45.832Z,11.74
2022-11-20T16:28:18.440Z,11.87
2022-11-20T16:30:46.941Z,11.90
2022-11-20T16:33:21.590Z,11.74
2022-11-20T16:35:48.988Z,11.65
2022-11-20T16:38:16.445Z,11.53
2022-11-20T16:40:43.724Z,11.54
2022-11-20T16:43:14.229Z,11.55
2022-11-20T16:45:42.254Z,11.48
2022-11-20T16:48:12.799Z,11.52
2022-11-20T16:50:45.602Z,11.53
2022-11-20T16:53:12.270Z,11.61
2022-11-20T16:55:39.047Z,11.62
2022-11-20T16:58:05.824Z,11.63
2022-11-20T17:00:32.940Z,11.69
2022-11-20T17:02:59.829Z,11.70
2022-11-20T17:05:26.698Z,11.77
2022-11-20T17:07:53.624Z,11.85
2022-11-20T17:10:20.943Z,11.78
2022-11-20T17:12:47.860Z,11.76
2022-11-20T17:15:14.886Z,11.82
2022-11-20T17:17:42.118Z,11.79
2022-11-20T17:20:09.665Z,11.78
2022-11-20T17:22:36.761Z,11.80
2022-11-20T17:25:04.146Z,11.82
2022-11-20T17:27:31.360Z,11.82
2022-11-20T17:29:59.665Z,11.82
2022-11-20T17:32:26.949Z,11.81
2022-11-20T17:34:54.104Z,11.89
2022-11-20T17:37:22.769Z,11.88
2022-11-20T17:39:49.839Z,11.86
2022-11-20T17:42:30.244Z,11.83
2022-11-20T17:44:59.156Z,11.83
2022-11-20T17:47:47.211Z,11.82
2022-11-20T17:50:14.911Z,11.94
2022-11-20T17:52:42.164Z,11.89
2022-11-20T17:55:11.141Z,11.93
2022-11-20T17:57:53.886Z,11.94
2022-11-20T18:00:22.089Z,11.88
2022-11-20T18:02:50.226Z,11.86
2022-11-20T18:05:21.339Z,11.86
2022-11-20T18:07:52.874Z,11.88
2022-11-20T18:10:21.577Z,11.89
2022-11-20T18:12:49.833Z,11.83
2022-11-20T18:15:19.289Z,11.80
2022-11-20T18:17:48.585Z,11.82
2022-11-20T18:20:36.581Z,11.81
2022-11-20T18:23:06.225Z,11.81
2022-11-20T18:25:35.061Z,11.79
2022-11-20T18:28:03.457Z,11.77
2022-11-20T18:30:31.634Z,11.63
2022-11-20T18:33:02.450Z,11.61
2022-11-20T18:35:32.614Z,11.53
2022-11-20T18:38:18.358Z,11.56
2022-11-20T18:40:45.587Z,11.62
2022-11-20T18:43:47.803Z,11.63
2022-11-20T18:46:16.492Z,11.69
2022-11-20T18:49:02.563Z,11.64
2022-11-20T18:54:33.656Z,11.49
2022-11-20T18:57:24.558Z,11.39
2022-11-20T18:59:52.867Z,11.34
2022-11-20T19:02:21.772Z,11.36
2022-11-20T19:04:51.262Z,11.42
2022-11-20T19:07:22.108Z,11.43
2022-11-20T19:09:51.153Z,11.37
2022-11-20T19:12:18.979Z,11.28
2022-11-20T19:14:47.718Z,11.22
2022-11-20T19:17:19.461Z,11.17
2022-11-20T19:19:50.923Z,11.12
2022-11-20T19:22:19.356Z,11.10
2022-11-20T19:24:48.815Z,11.11
2022-11-20T19:27:16.931Z,11.10
2022-11-20T19:29:45.871Z,11.06
2022-11-20T19:32:13.958Z,11.00
2022-11-20T19:34:43.281Z,10.99
2022-11-20T19:37:11.715Z,10.95
2022-11-20T19:39:40.889Z,10.92
2022-11-20T19:42:09.591Z,10.82
2022-11-20T19:44:37.802Z,10.75
2022-11-20T19:47:10.231Z,10.69
2022-11-20T19:49:43.336Z,10.72
2022-11-20T19:52:12.358Z,10.71
2022-11-20T19:54:41.640Z,10.74
2022-11-20T19:57:10.089Z,10.74
2022-11-20T19:59:38.900Z,10.72
2022-11-20T20:02:07.447Z,10.68
2022-11-20T20:04:35.747Z,10.70
2022-11-20T20:07:04.564Z,10.70
2022-11-20T20:09:35.043Z,10.64
2022-11-20T20:12:06.245Z,10.66
2022-11-20T20:14:35.654Z,10.65
2022-11-20T20:17:03.736Z,10.62
2022-11-20T20:19:31.996Z,10.61
2022-11-20T20:22:01.989Z,10.60
2022-11-20T20:24:56.648Z,10.57
2022-11-20T20:27:37.882Z,10.56
2022-11-20T20:30:31.785Z,10.54
2022-11-20T20:33:04.994Z,10.52
2022-11-20T20:35:33.258Z,10.45
2022-11-20T20:38:21.068Z,10.44
2022-11-20T20:40:50.988Z,10.41
2022-11-20T20:43:19.544Z,10.35
2022-11-20T20:45:52.155Z,10.34
2022-11-20T20:48:22.354Z,10.32
2022-11-20T20:50:58.182Z,10.32
2022-11-20T20:53:26.706Z,10.31
2022-11-20T20:55:54.985Z,10.36
2022-11-20T20:58:31.371Z,10.31
2022-11-20T21:01:06.904Z,10.18
2022-11-20T21:03:35.559Z,10.03
2022-11-20T21:06:10.147Z,10.03
2022-11-20T21:08:41.268Z,10.05
2022-11-20T21:11:17.525Z,10.09
2022-11-20T21:13:48.792Z,10.17
2022-11-20T21:16:18.369Z,10.09
2022-11-20T21:19:12.765Z,10.03
2022-11-20T21:22:09.406Z,10.07
2022-11-20T21:24:42.615Z,10.07
2022-11-20T21:27:10.427Z,10.00
2022-11-20T21:29:40.238Z,9.98
2022-11-20T21:32:24.615Z,9.96
2022-11-20T21:35:01.232Z,10.05
2022-11-20T21:37:30.927Z,10.11
2022-11-20T21:40:04.916Z,10.14
2022-11-20T21:42:34.769Z,10.21
2022-11-20T21:45:10.946Z,10.33
2022-11-20T21:47:43.308Z,10.31
2022-11-20T21:50:20.233Z,10.23
2022-11-20T21:52:56.235Z,10.25
2022-11-20T21:55:22.977Z,10.25
2022-11-20T21:57:49.922Z,10.27
2022-11-20T22:00:17.441Z,10.30
2022-11-20T22:09:00.834Z,10.34
2022-11-20T22:12:02.453Z,10.45
2022-11-20T22:15:38.905Z,10.31
2022-11-20T22:18:14.742Z,10.44
2022-11-20T22:21:03.632Z,10.34
2022-11-20T22:26:51.324Z,10.42
2022-11-20T22:29:35.597Z,10.48
2022-11-20T22:32:18.548Z,10.34
2022-11-20T22:34:50.255Z,10.26
2022-11-20T22:37:26.744Z,10.24
2022-11-20T22:40:20.929Z,10.35
2022-11-20T22:45:57.488Z,10.47
2022-11-20T22:48:49.210Z,10.54
2022-11-20T22:51:31.333Z,10.70
2022-11-20T22:54:20.272Z,10.82
2022-11-20T22:57:08.764Z,10.72
2022-11-20T22:59:53.747Z,10.85
2022-11-20T23:02:35.753Z,10.99
2022-11-20T23:05:12.103Z,11.06
2022-11-20T23:07:50.096Z,10.97
2022-11-20T23:10:17.377Z,11.07
2022-11-20T23:12:44.067Z,11.24
2022-11-20T23:15:11.043Z,11.28
2022-11-20T23:17:37.792Z,11.51
2022-11-20T23:20:04.663Z,11.75
2022-11-20T23:22:32.288Z,12.22
2022-11-20T23:24:58.997Z,12.83
2022-11-20T23:27:28.337Z,12.97
2022-11-20T23:29:55.431Z,13.08
2022-11-20T23:32:22.212Z,13.13
2022-11-20T23:34:48.919Z,13.14
2022-11-20T23:37:15.576Z,13.10
2022-11-20T23:39:42.467Z,13.15
2022-11-20T23:42:09.238Z,13.13
2022-11-20T23:44:36.033Z,13.04
2022-11-20T23:47:02.805Z,12.98
2022-11-20T23:49:29.650Z,12.86
2022-11-20T23:51:56.463Z,12.77
2022-11-20T23:54:23.150Z,12.63
2022-11-20T23:56:50.609Z,12.55
2022-11-20T23:59:17.344Z,12.51
